Time;durP1;ratioP1;P1;durP2;ratioP2;P2;SDS_P1;SDS_P2;PMS_P1;PMS_P2;Temp;Humidity;BMP_temperature;BMP_pressure;BME280_temperature;BME280_humidity;BME280_pressure;Samples;Min_cycle;Max_cycle;Signal;HPM_P1;HPM_P2
2023/06/01 00:00:27;;;;;;;5.85;2.58;;;12.60;1.00;13.30;94387.00;;;;7389450;19;20562;-74
2023/06/01 00:03:01;;;;;;;7.03;2.83;;;12.50;1.00;13.20;94375.00;;;;7391362;19;20184;-74
2023/06/01 00:05:35;;;;;;;9.20;2.53;;;12.50;1.00;13.20;94354.00;;;;7392510;19;20180;-74
2023/06/01 00:08:15;;;;;;;5.28;2.45;;;12.40;1.00;13.30;94388.00;;;;7391416;19;20612;-75
2023/06/01 00:10:49;;;;;;;4.00;2.80;;;12.40;1.00;13.30;94396.00;;;;7392768;19;20616;-74
2023/06/01 00:13:23;;;;;;;6.78;2.78;;;12.50;1.00;13.30;94360.00;;;;7390440;19;20612;-75
2023/06/01 00:15:57;;;;;;;5.53;2.80;;;12.50;1.00;13.20;94368.00;;;;7392742;19;20125;-74
2023/06/01 00:18:32;;;;;;;5.45;2.58;;;12.50;1.00;13.30;94351.00;;;;7390663;19;20584;-74
2023/06/01 00:21:00;;;;;;;3.97;2.80;;;12.50;1.00;13.20;94386.00;;;;7391161;19;20145;-74
2023/06/01 00:23:34;;;;;;;3.72;2.72;;;12.40;1.00;13.10;94391.00;;;;7391037;19;20132;-74
2023/06/01 00:26:02;;;;;;;5.85;2.58;;;12.40;1.00;13.20;94347.00;;;;7391660;19;20624;-74
2023/06/01 00:28:43;;;;;;;5.50;3.00;;;12.40;1.00;13.20;94360.00;;;;7391015;19;20153;-74
2023/06/01 00:31:10;;;;;;;5.20;2.50;;;12.40;1.00;13.10;94385.00;;;;7392663;19;20597;-75
2023/06/01 00:33:44;;;;;;;3.30;2.30;;;12.30;1.00;13.00;94358.00;;;;7390295;19;20129;-74
2023/06/01 00:36:19;;;;;;;3.13;2.20;;;12.30;1.00;13.00;94371.00;;;;7390062;19;20592;-74
2023/06/01 00:38:53;;;;;;;4.28;2.53;;;12.20;1.00;13.10;94391.00;;;;7391796;19;20133;-76
2023/06/01 00:41:20;;;;;;;6.18;2.58;;;12.20;1.00;13.10;94363.00;;;;7390220;19;20146;-75
2023/06/01 00:43:54;;;;;;;6.18;2.70;;;12.30;1.00;13.10;94379.00;;;;7391979;19;20132;-75
2023/06/01 00:46:22;;;;;;;3.38;2.42;;;12.20;1.00;13.10;94356.00;;;;7393253;19;20144;-75
2023/06/01 00:48:57;;;;;;;4.70;2.25;;;12.20;1.00;13.00;94389.00;;;;7391143;19;20136;-76
2023/06/01 00:51:33;;;;;;;3.08;2.30;;;12.10;1.00;13.00;94339.00;;;;7391364;19;20128;-75
2023/06/01 00:54:08;;;;;;;4.68;2.67;;;12.10;1.00;12.80;94373.00;;;;7392207;19;20128;-75
2023/06/01 00:56:42;;;;;;;8.10;2.50;;;12.00;1.00;12.70;94375.00;;;;7391189;19;20580;-75
2023/06/01 00:59:16;;;;;;;3.95;2.50;;;12.00;1.00;12.70;94353.00;;;;7391576;19;20141;-75
2023/06/01 01:01:43;;;;;;;5.18;3.00;;;11.90;1.00;12.70;94384.00;;;;7388498;19;20208;-75
2023/06/01 01:04:25;;;;;;;4.13;2.20;;;11.90;1.00;12.50;94343.00;;;;7390759;19;20141;-75
2023/06/01 01:07:24;;;;;;;6.72;2.50;;;11.80;1.00;12.50;94377.00;;;;7392252;19;20168;-75
2023/06/01 01:10:25;;;;;;;4.80;2.80;;;11.60;1.00;12.50;94375.00;;;;7392730;19;20151;-74
2023/06/01 01:13:23;;;;;;;3.45;2.40;;;11.60;1.00;12.40;94381.00;;;;7390507;19;20518;-75
2023/06/01 01:16:37;;;;;;;5.50;2.40;;;11.60;1.00;12.50;94373.00;;;;7392221;19;20125;-75
2023/06/01 01:19:53;;;;;;;5.88;2.50;;;11.60;1.00;12.60;94376.00;;;;7392877;19;20131;-75
2023/06/01 01:22:58;;;;;;;5.03;2.47;;;11.60;1.00;12.50;94384.00;;;;7390983;19;20188;-75
2023/06/01 01:26:09;;;;;;;3.88;2.60;;;11.50;1.00;12.50;94368.00;;;;7389299;19;20148;-75
2023/06/01 01:28:52;;;;;;;5.32;2.40;;;11.50;1.00;12.30;94369.00;;;;7397778;19;20164;-75
2023/06/01 01:31:28;;;;;;;11.15;2.78;;;11.50;1.00;12.40;94371.00;;;;7408268;19;21202;-74
2023/06/01 01:34:05;;;;;;;7.32;2.38;;;11.50;1.00;12.30;94355.00;;;;7407800;19;20137;-75
2023/06/01 01:36:40;;;;;;;4.60;2.65;;;11.40;1.00;12.50;94335.00;;;;7408876;19;20128;-76
2023/06/01 01:39:07;;;;;;;5.18;2.88;;;11.40;1.00;12.40;94363.00;;;;7409061;19;20117;-76
2023/06/01 01:41:41;;;;;;;4.07;2.70;;;11.40;1.00;12.50;94355.00;;;;7404037;19;20132;-75
2023/06/01 01:44:16;;;;;;;6.47;2.80;;;11.50;1.00;12.60;94356.00;;;;7401292;19;20136;-76
2023/06/01 01:47:18;;;;;;;6.82;2.60;;;11.60;1.00;12.60;94341.00;;;;7403386;19;20155;-76
2023/06/01 01:49:53;;;;;;;6.78;2.55;;;11.60;1.00;12.50;94363.00;;;;7402633;19;20148;-76
2023/06/01 01:52:38;;;;;;;5.53;2.83;;;11.70;1.00;12.70;94320.00;;;;7402770;19;20131;-76
2023/06/01 01:55:10;;;;;;;5.10;2.50;;;11.70;1.00;12.80;94359.00;;;;7399203;19;20616;-74
2023/06/01 01:57:45;;;;;;;5.03;2.90;;;11.70;1.00;12.50;94352.00;;;;7400951;19;20135;-77
2023/06/01 02:00:19;;;;;;;5.95;2.60;;;11.70;1.00;12.40;94347.00;;;;7399651;19;20132;-74
2023/06/01 02:02:47;;;;;;;6.80;2.28;;;11.70;1.00;12.50;94322.00;;;;7400162;19;20129;-76
2023/06/01 02:05:21;;;;;;;7.20;2.75;;;11.70;1.00;12.60;94355.00;;;;7402018;19;20593;-76
2023/06/01 02:07:55;;;;;;;4.47;2.50;;;11.70;1.00;12.50;94316.00;;;;7398333;19;20706;-76
2023/06/01 02:10:36;;;;;;;6.55;2.40;;;11.80;1.00;12.30;94326.00;;;;7398776;19;20129;-76
2023/06/01 02:13:09;;;;;;;3.45;2.50;;;11.70;1.00;12.20;94327.00;;;;7397955;19;20167;-76
2023/06/01 02:15:43;;;;;;;5.13;2.45;;;11.70;1.00;12.20;94344.00;;;;7399484;19;20109;-76
2023/06/01 02:18:11;;;;;;;4.20;2.63;;;11.60;1.00;12.20;94316.00;;;;7396583;19;20132;-76
2023/06/01 02:20:38;;;;;;;3.83;2.50;;;11.50;1.00;12.30;94352.00;;;;7396055;19;20129;-76
2023/06/01 02:23:12;;;;;;;4.97;2.67;;;11.50;1.00;12.50;94344.00;;;;7397213;19;20151;-76
2023/06/01 02:25:39;;;;;;;5.80;3.03;;;11.60;1.00;12.60;94307.00;;;;7397103;19;20153;-76
2023/06/01 02:28:13;;;;;;;5.38;2.70;;;11.60;1.00;12.40;94336.00;;;;7396653;19;20158;-76
2023/06/01 02:30:47;;;;;;;6.50;2.42;;;11.60;1.00;12.30;94325.00;;;;7396801;19;20622;-76
2023/06/01 02:33:15;;;;;;;4.93;2.40;;;11.60;1.00;12.20;94335.00;;;;7395282;19;20141;-76
2023/06/01 02:35:49;;;;;;;3.67;2.50;;;11.60;1.00;12.20;94323.00;;;;7397586;19;20159;-76
2023/06/01 02:38:16;;;;;;;4.78;2.50;;;11.60;1.00;12.30;94344.00;;;;7396196;19;20156;-76
2023/06/01 02:40:50;;;;;;;7.68;2.88;;;11.60;1.00;12.30;94344.00;;;;7392317;19;20148;-76
2023/06/01 02:43:17;;;;;;;6.38;2.85;;;11.60;1.00;12.40;94333.00;;;;7395258;19;20145;-76
2023/06/01 02:45:51;;;;;;;4.25;3.08;;;11.60;1.00;12.50;94271.00;;;;7396300;19;20125;-75
2023/06/01 02:48:18;;;;;;;6.78;3.08;;;11.50;1.00;12.50;94330.00;;;;7395311;19;20958;-76
2023/06/01 02:50:52;;;;;;;4.10;2.42;;;11.50;1.00;12.40;94335.00;;;;7395893;19;20129;-77
2023/06/01 02:53:20;;;;;;;7.78;2.83;;;11.50;1.00;12.40;94340.00;;;;7395398;19;20140;-75
2023/06/01 02:55:54;;;;;;;5.43;2.78;;;11.50;1.00;12.40;94312.00;;;;7395632;19;20120;-77
2023/06/01 02:58:21;;;;;;;9.77;3.10;;;11.50;1.00;12.30;94310.00;;;;7394150;19;20181;-76
2023/06/01 03:00:57;;;;;;;4.30;2.90;;;11.60;1.00;12.30;94329.00;;;;7394890;19;20141;-76
2023/06/01 03:03:32;;;;;;;5.28;2.55;;;11.60;1.00;12.40;94332.00;;;;7396743;19;20184;-76
2023/06/01 03:06:06;;;;;;;4.68;2.60;;;11.60;1.00;12.60;94307.00;;;;7394715;19;20132;-76
2023/06/01 03:08:40;;;;;;;3.38;2.65;;;11.60;1.00;12.40;94321.00;;;;7392169;19;20510;-76
2023/06/01 03:11:14;;;;;;;5.10;2.85;;;11.70;1.00;12.30;94328.00;;;;7395743;19;20132;-75
2023/06/01 03:13:41;;;;;;;7.72;2.55;;;11.60;1.00;12.20;94333.00;;;;7395162;19;20133;-75
2023/06/01 03:16:16;;;;;;;6.55;2.70;;;11.60;1.00;12.20;94332.00;;;;7396479;19;20157;-76
2023/06/01 03:18:50;;;;;;;7.93;3.25;;;11.60;1.00;12.10;94331.00;;;;7393576;19;20635;-76
2023/06/01 03:21:24;;;;;;;6.85;2.70;;;11.50;1.00;12.10;94319.00;;;;7392333;19;20145;-76
2023/06/01 03:23:58;;;;;;;5.88;2.65;;;11.50;1.00;12.00;94303.00;;;;7395515;19;20136;-75
2023/06/01 03:26:32;;;;;;;3.70;2.58;;;11.40;1.00;12.00;94312.00;;;;7395702;19;20218;-75
2023/06/01 03:29:06;;;;;;;6.07;2.67;;;11.40;1.00;12.00;94303.00;;;;7394935;19;20129;-76
2023/06/01 03:31:34;;;;;;;4.38;2.90;;;11.40;1.00;12.00;94328.00;;;;7395353;19;20125;-75
2023/06/01 03:34:08;;;;;;;5.32;2.63;;;11.40;1.00;12.00;94322.00;;;;7394208;19;20144;-76
2023/06/01 03:36:45;;;;;;;7.05;2.83;;;11.40;1.00;12.00;94325.00;;;;7395398;19;20121;-75
2023/06/01 03:39:19;;;;;;;6.28;2.72;;;11.40;1.00;12.10;94318.00;;;;7392265;19;20179;-75
2023/06/01 03:41:46;;;;;;;7.47;2.88;;;11.40;1.00;12.20;94313.00;;;;7391386;19;20828;-76
2023/06/01 03:44:20;;;;;;;7.22;2.95;;;11.40;1.00;12.20;94316.00;;;;7390539;19;20148;-75
2023/06/01 03:46:54;;;;;;;4.25;2.78;;;11.40;1.00;12.10;94302.00;;;;7391986;19;21220;-75
2023/06/01 03:49:21;;;;;;;5.10;2.80;;;11.40;1.00;12.10;94335.00;;;;7390430;19;20141;-75
2023/06/01 03:51:55;;;;;;;6.07;2.60;;;11.40;1.00;12.10;94334.00;;;;7391953;19;20129;-76
2023/06/01 03:54:22;;;;;;;9.45;2.90;;;11.40;1.00;12.10;94324.00;;;;7394185;19;20141;-76
2023/06/01 03:56:57;;;;;;;4.80;2.72;;;11.40;1.00;12.10;94272.00;;;;7393958;19;20121;-76
2023/06/01 03:59:31;;;;;;;5.97;2.85;;;11.40;1.00;12.10;94328.00;;;;7393652;19;20121;-75
2023/06/01 04:01:59;;;;;;;7.10;2.75;;;11.40;1.00;12.20;94317.00;;;;7392897;19;20145;-75
2023/06/01 04:04:33;;;;;;;6.90;2.85;;;11.50;1.00;12.30;94334.00;;;;7394446;19;20125;-76
2023/06/01 04:07:03;;;;;;;5.72;2.70;;;11.50;1.00;12.30;94338.00;;;;7393445;19;20156;-76
2023/06/01 04:09:44;;;;;;;7.13;3.00;;;11.50;1.00;12.30;94336.00;;;;7393843;19;20132;-75
2023/06/01 04:12:18;;;;;;;4.28;2.70;;;11.60;1.00;12.40;94303.00;;;;7392515;19;20156;-76
2023/06/01 04:14:52;;;;;;;5.68;3.75;;;11.60;1.00;12.50;94339.00;;;;7393039;19;20635;-76
2023/06/01 04:17:26;;;;;;;5.72;2.90;;;11.60;1.00;12.60;94345.00;;;;7389722;19;20157;-75
2023/06/01 04:20:00;;;;;;;3.67;2.58;;;11.70;1.00;12.60;94305.00;;;;7388757;19;20644;-75
2023/06/01 04:22:28;;;;;;;6.10;2.83;;;11.80;1.00;12.60;94348.00;;;;7391163;19;20135;-76
2023/06/01 04:24:55;;;;;;;8.93;3.15;;;11.80;1.00;12.80;94334.00;;;;7393449;19;20727;-75
2023/06/01 04:27:29;;;;;;;4.72;3.00;;;11.90;1.00;12.80;94331.00;;;;7389624;19;20128;-75
2023/06/01 04:30:07;;;;;;;4.45;2.63;;;11.90;1.00;12.90;94332.00;;;;7390791;19;20149;-75
2023/06/01 04:32:44;;;;;;;3.22;2.47;;;12.00;1.00;13.00;94352.00;;;;7391588;19;20155;-76
2023/06/01 04:35:11;;;;;;;9.48;3.03;;;12.10;1.00;13.10;94321.00;;;;7391319;19;20129;-75
2023/06/01 04:37:46;;;;;;;6.72;2.88;;;12.10;1.00;13.30;94342.00;;;;7391740;19;20145;-75
2023/06/01 04:40:13;;;;;;;5.78;2.72;;;12.20;1.00;13.30;94326.00;;;;7392088;19;20137;-75
2023/06/01 04:42:48;;;;;;;6.72;3.05;;;12.30;1.00;13.50;94310.00;;;;7392008;19;20178;-76
2023/06/01 04:45:25;;;;;;;4.05;2.55;;;12.30;1.00;13.60;94355.00;;;;7388853;19;20576;-80
2023/06/01 04:48:00;;;;;;;4.20;2.60;;;12.40;1.00;13.60;94328.00;;;;7396587;19;20152;-80
2023/06/01 04:50:34;;;;;;;4.35;2.75;;;12.60;1.00;13.70;94339.00;;;;7396210;19;20249;-80
2023/06/01 04:53:08;;;;;;;5.43;2.72;;;12.70;1.00;13.90;94355.00;;;;7397021;19;20596;-80
2023/06/01 04:55:44;;;;;;;4.70;2.83;;;12.80;1.00;14.00;94346.00;;;;7397068;19;20121;-80
2023/06/01 04:58:17;;;;;;;5.38;2.92;;;12.90;1.00;14.20;94345.00;;;;7383551;19;20128;-78
2023/06/01 05:00:52;;;;;;;5.75;3.33;;;13.00;1.00;14.40;94353.00;;;;7372879;19;20183;-79
2023/06/01 05:03:20;;;;;;;5.15;3.00;;;13.10;1.00;14.50;94310.00;;;;7379369;19;20149;-78
2023/06/01 05:05:55;;;;;;;4.60;2.83;;;13.20;1.00;14.80;94348.00;;;;7379783;19;20243;-79
2023/06/01 05:08:30;;;;;;;5.28;2.85;;;13.40;1.00;14.80;94348.00;;;;7377806;19;20206;-79
2023/06/01 05:11:05;;;;;;;7.50;2.80;;;13.60;1.00;15.00;94356.00;;;;7379518;19;20504;-78
2023/06/01 05:13:40;;;;;;;5.40;2.80;;;13.80;1.00;15.20;94312.00;;;;7377420;19;20808;-78
2023/06/01 05:16:14;;;;;;;6.75;2.85;;;13.90;1.00;15.30;94319.00;;;;7377639;19;20184;-78
2023/06/01 05:18:49;;;;;;;5.45;2.83;;;14.00;1.00;15.50;94319.00;;;;7375580;19;20240;-79
2023/06/01 05:21:23;;;;;;;4.80;2.55;;;14.10;1.00;15.60;94335.00;;;;7377460;19;20145;-79
2023/06/01 05:23:51;;;;;;;6.28;3.53;;;14.30;1.00;15.70;94318.00;;;;7377286;19;20132;-79
2023/06/01 05:26:25;;;;;;;4.55;3.03;;;14.50;1.00;15.90;94349.00;;;;7373399;19;20556;-78
2023/06/01 05:29:12;;;;;;;5.47;2.75;;;14.60;1.00;16.10;94334.00;;;;7376297;19;20169;-78
2023/06/01 05:31:46;;;;;;;5.85;3.30;;;14.80;1.00;16.30;94346.00;;;;7378393;19;20552;-77
2023/06/01 05:34:15;;;;;;;6.35;2.88;;;15.00;1.00;16.40;94328.00;;;;7377393;19;20173;-77
2023/06/01 05:36:48;;;;;;;4.93;3.03;;;15.20;1.00;16.60;94323.00;;;;7376895;19;20151;-77
2023/06/01 05:39:27;;;;;;;5.95;3.42;;;15.30;1.00;16.70;94336.00;;;;7378389;19;20548;-80
2023/06/01 05:42:01;;;;;;;9.57;3.10;;;15.50;1.00;16.80;94327.00;;;;7378987;19;20153;-79
2023/06/01 05:44:35;;;;;;;6.72;2.92;;;15.60;1.00;17.00;94321.00;;;;7376296;19;20142;-82
2023/06/01 05:47:09;;;;;;;6.47;3.58;;;15.80;1.00;17.10;94352.00;;;;7374429;19;21001;-79
2023/06/01 05:49:43;;;;;;;5.70;3.20;;;15.90;1.00;17.30;94340.00;;;;7371017;19;20148;-79
2023/06/01 05:52:17;;;;;;;10.32;3.20;;;16.10;1.00;17.50;94341.00;;;;7375471;19;20645;-79
2023/06/01 05:54:53;;;;;;;8.43;3.40;;;16.40;1.00;17.80;94354.00;;;;7375873;19;20572;-78
2023/06/01 05:57:21;;;;;;;4.85;3.35;;;16.90;1.00;18.10;94335.00;;;;7375414;19;20161;-78
2023/06/01 05:59:55;;;;;;;4.15;2.65;;;17.30;1.00;18.80;94342.00;;;;7372396;19;20159;-77
2023/06/01 06:02:23;;;;;;;5.07;2.83;;;17.90;1.00;18.80;94346.00;;;;7376358;19;20181;-78
2023/06/01 06:04:56;;;;;;;13.23;3.38;;;18.30;1.00;19.50;94344.00;;;;7375819;19;20476;-78
2023/06/01 06:07:24;;;;;;;5.15;3.33;;;18.80;1.00;20.10;94339.00;;;;7375295;19;20192;-79
2023/06/01 06:10:06;;;;;;;4.00;2.90;;;19.00;1.00;20.00;94342.00;;;;7375543;19;20151;-78
2023/06/01 06:12:40;;;;;;;4.05;2.97;;;19.20;1.00;19.90;94357.00;;;;7376859;19;20568;-80
2023/06/01 06:15:14;;;;;;;3.75;2.85;;;19.50;1.00;20.30;94346.00;;;;7376640;19;20141;-80
2023/06/01 06:17:48;;;;;;;7.30;3.00;;;19.60;1.00;20.40;94358.00;;;;7381371;19;20153;-79
2023/06/01 06:20:22;;;;;;;7.60;3.25;;;19.70;1.00;20.50;94351.00;;;;7383186;19;20152;-78
2023/06/01 06:22:56;;;;;;;6.35;3.25;;;19.90;1.00;21.00;94351.00;;;;7381462;19;20132;-80
2023/06/01 06:25:30;;;;;;;4.47;3.30;;;19.90;1.00;21.00;94353.00;;;;7373442;19;20450;-78
2023/06/01 06:27:58;;;;;;;4.72;3.30;;;20.00;1.00;21.30;94338.00;;;;7380314;19;20145;-80
2023/06/01 06:30:32;;;;;;;4.93;3.30;;;20.10;1.00;21.60;94358.00;;;;7379577;19;20251;-80
2023/06/01 06:33:00;;;;;;;5.43;3.10;;;20.20;1.00;22.60;94328.00;;;;7376972;19;20173;-78
2023/06/01 06:35:41;;;;;;;8.40;3.55;;;20.10;99.90;22.70;94357.00;;;;7382506;19;20164;-79
2023/06/01 06:38:11;;;;;;;7.93;3.72;;;20.20;1.00;22.80;94337.00;;;;7379597;19;20148;-79
2023/06/01 06:40:45;;;;;;;3.97;3.00;;;20.30;1.40;23.60;94345.00;;;;7378919;19;20204;-79
2023/06/01 06:43:14;;;;;;;7.03;3.30;;;20.30;1.00;24.10;94353.00;;;;7376955;19;20149;-78
2023/06/01 06:45:48;;;;;;;5.70;3.17;;;20.50;1.00;23.40;94354.00;;;;7379633;19;20176;-80
2023/06/01 06:48:22;;;;;;;9.57;3.80;;;20.70;99.90;23.70;94345.00;;;;7378894;19;20244;-79
2023/06/01 06:50:57;;;;;;;5.47;3.60;;;20.70;99.90;23.40;94338.00;;;;7379298;19;20148;-79
2023/06/01 06:53:33;;;;;;;4.15;3.72;;;20.70;99.90;23.80;94344.00;;;;7376750;19;20522;-78
2023/06/01 06:56:07;;;;;;;4.10;3.30;;;20.60;99.90;23.90;94355.00;;;;7381254;19;20528;-79
2023/06/01 06:58:34;;;;;;;5.75;3.65;;;20.50;99.90;23.70;94320.00;;;;7378446;19;20204;-78
2023/06/01 07:01:16;;;;;;;6.18;3.85;;;20.60;1.00;23.10;94347.00;;;;7378601;19;20156;-79
2023/06/01 07:03:50;;;;;;;6.10;3.65;;;20.60;99.90;23.80;94363.00;;;;7377960;19;20137;-80
2023/06/01 07:06:18;;;;;;;5.85;3.70;;;20.60;99.90;23.20;94358.00;;;;7379644;19;20557;-79
2023/06/01 07:08:45;;;;;;;4.72;3.50;;;20.60;99.90;22.80;94350.00;;;;7380357;19;20152;-79
2023/06/01 07:11:20;;;;;;;6.93;3.90;;;20.60;1.40;22.50;94346.00;;;;7379443;19;20152;-81
2023/06/01 07:14:04;;;;;;;5.53;3.45;;;20.70;99.90;22.40;94362.00;;;;7381160;19;20247;-81
2023/06/01 07:16:46;;;;;;;8.38;4.22;;;20.70;99.90;22.20;94346.00;;;;7378737;19;20152;-79
2023/06/01 07:19:15;;;;;;;6.22;3.70;;;20.70;99.90;22.10;94373.00;;;;7378108;19;20155;-77
2023/06/01 07:21:49;;;;;;;8.70;4.20;;;20.50;99.90;22.20;94354.00;;;;7376235;19;20157;-77
2023/06/01 07:24:25;;;;;;;7.93;4.63;;;20.50;99.90;22.70;94355.00;;;;7375839;19;20144;-78
2023/06/01 07:26:53;;;;;;;7.20;4.53;;;20.60;99.90;22.60;94359.00;;;;7374328;19;20157;-77
2023/06/01 07:29:28;;;;;;;5.97;4.10;;;20.70;99.90;23.20;94373.00;;;;7373363;19;20485;-78
2023/06/01 07:31:55;;;;;;;6.90;4.18;;;20.70;99.90;22.70;94370.00;;;;7374315;19;20144;-76
2023/06/01 07:34:30;;;;;;;8.35;3.70;;;20.90;1.00;23.10;94375.00;;;;7373936;19;20144;-78
2023/06/01 07:37:04;;;;;;;7.03;4.25;;;21.00;99.90;23.40;94364.00;;;;7375240;19;20245;-76
2023/06/01 07:39:44;;;;;;;7.88;3.88;;;21.20;99.90;23.60;94372.00;;;;7375190;19;20140;-78
2023/06/01 07:42:20;;;;;;;8.27;4.00;;;21.30;99.90;23.80;94370.00;;;;7376249;19;20128;-77
2023/06/01 07:44:54;;;;;;;5.65;3.67;;;21.50;99.90;23.10;94371.00;;;;7374286;19;20148;-77
2023/06/01 07:47:22;;;;;;;14.40;4.15;;;21.60;99.90;23.30;94372.00;;;;7372688;19;20491;-78
2023/06/01 07:49:57;;;;;;;7.70;4.20;;;21.60;99.90;22.50;94318.00;;;;7374292;19;20140;-77
2023/06/01 07:52:25;;;;;;;7.30;4.25;;;21.50;99.90;22.90;94372.00;;;;7377567;19;20480;-77
2023/06/01 07:54:59;;;;;;;6.25;4.22;;;21.50;1.00;23.10;94376.00;;;;7375305;19;20192;-76
2023/06/01 07:57:34;;;;;;;8.00;4.07;;;21.60;1.40;23.10;94361.00;;;;7375344;19;20165;-76
2023/06/01 08:00:12;;;;;;;6.75;4.35;;;21.80;99.90;23.30;94375.00;;;;7376360;19;20139;-78
2023/06/01 08:02:46;;;;;;;7.03;3.85;;;21.90;99.90;23.60;94377.00;;;;7376505;19;20152;-77
2023/06/01 08:05:21;;;;;;;5.53;3.83;;;21.90;99.90;23.30;94369.00;;;;7376527;19;20516;-77
2023/06/01 08:07:56;;;;;;;7.20;4.57;;;22.10;99.90;23.40;94379.00;;;;7373566;19;20188;-76
2023/06/01 08:10:31;;;;;;;6.75;3.70;;;22.20;99.90;23.60;94374.00;;;;7378617;19;20125;-76
2023/06/01 08:12:59;;;;;;;6.50;3.83;;;22.20;99.90;24.00;94377.00;;;;7376504;19;20202;-77
2023/06/01 08:15:36;;;;;;;5.43;4.30;;;22.30;99.90;23.80;94361.00;;;;7374337;19;20976;-76
2023/06/01 08:18:10;;;;;;;7.03;3.95;;;22.40;99.90;24.00;94364.00;;;;7372688;19;20152;-76
2023/06/01 08:20:41;;;;;;;8.25;4.43;;;22.40;99.90;24.40;94369.00;;;;7371806;19;20165;-76
2023/06/01 08:23:16;;;;;;;5.65;4.05;;;22.40;99.90;24.40;94358.00;;;;7373651;19;20154;-76
2023/06/01 08:25:45;;;;;;;6.90;4.40;;;22.60;99.90;24.60;94355.00;;;;7374140;19;20226;-75
2023/06/01 08:28:20;;;;;;;6.28;4.28;;;22.80;99.90;24.60;94372.00;;;;7376567;19;20124;-77
2023/06/01 08:30:56;;;;;;;8.13;4.63;;;22.90;99.90;24.50;94372.00;;;;7372162;19;21039;-77
2023/06/01 08:33:23;;;;;;;6.82;4.45;;;23.00;99.90;24.30;94352.00;;;;7374055;19;20215;-76
2023/06/01 08:35:57;;;;;;;9.23;3.90;;;23.00;99.90;24.40;94362.00;;;;7373675;19;20144;-76
2023/06/01 08:38:29;;;;;;;13.77;4.20;;;23.10;99.90;24.50;94342.00;;;;7372566;19;20213;-76
2023/06/01 08:41:17;;;;;;;8.52;4.05;;;23.30;99.90;25.10;94350.00;;;;7373461;19;20144;-77
2023/06/01 08:44:03;;;;;;;5.53;4.40;;;23.30;99.90;25.30;94360.00;;;;7374951;19;20155;-76
2023/06/01 08:46:40;;;;;;;9.45;3.90;;;23.50;99.90;25.70;94348.00;;;;7374571;19;20135;-77
2023/06/01 08:49:13;;;;;;;8.93;4.13;;;23.80;99.90;26.10;94368.00;;;;7376085;19;20540;-77
2023/06/01 08:51:55;;;;;;;6.45;3.72;;;23.90;99.90;26.20;94340.00;;;;7373583;19;20567;-78
2023/06/01 08:54:30;;;;;;;6.72;3.75;;;24.10;99.90;26.10;94354.00;;;;7372240;19;20157;-77
2023/06/01 08:57:02;;;;;;;9.48;4.53;;;24.30;99.90;26.30;94353.00;;;;7375245;19;20142;-77
2023/06/01 08:59:38;;;;;;;9.27;4.43;;;24.30;99.90;26.70;94344.00;;;;7372644;19;20592;-76
2023/06/01 09:02:07;;;;;;;9.23;4.35;;;24.20;99.90;27.10;94344.00;;;;7372638;19;20180;-77
2023/06/01 09:04:44;;;;;;;11.43;4.50;;;24.30;99.90;26.60;94341.00;;;;7375124;19;20128;-77
2023/06/01 09:07:14;;;;;;;8.80;4.15;;;24.40;99.90;27.30;94350.00;;;;7371283;19;20153;-76
2023/06/01 09:09:55;;;;;;;6.38;4.00;;;24.60;99.90;27.90;94354.00;;;;7372920;19;20517;-78
2023/06/01 09:12:31;;;;;;;6.82;4.40;;;24.60;99.90;27.70;94351.00;;;;7372369;19;20152;-77
2023/06/01 09:15:12;;;;;;;8.15;5.25;;;24.80;99.90;27.70;94355.00;;;;7372051;19;20143;-77
2023/06/01 09:17:51;;;;;;;7.53;4.88;;;24.50;99.90;27.70;94346.00;;;;7371236;19;20155;-75
2023/06/01 09:20:28;;;;;;;8.88;4.38;;;24.30;99.90;27.30;94359.00;;;;7372650;19;20129;-77
2023/06/01 09:22:56;;;;;;;8.82;4.68;;;24.30;99.90;26.60;94341.00;;;;7370837;19;20129;-76
2023/06/01 09:25:33;;;;;;;9.13;4.63;;;24.20;99.90;26.90;94356.00;;;;7371547;19;20266;-76
2023/06/01 09:28:02;;;;;;;7.20;4.70;;;24.30;99.90;27.00;94357.00;;;;7373064;19;20200;-76
2023/06/01 09:30:42;;;;;;;6.85;4.38;;;24.40;99.90;26.70;94356.00;;;;7372119;19;20124;-75
2023/06/01 09:33:19;;;;;;;8.98;4.47;;;24.70;99.90;26.90;94368.00;;;;7371020;19;20595;-77
2023/06/01 09:35:54;;;;;;;8.13;4.20;;;24.70;99.90;26.40;94342.00;;;;7373004;19;20145;-76
2023/06/01 09:38:26;;;;;;;6.10;4.50;;;24.50;99.90;26.40;94362.00;;;;7370388;19;20205;-76
2023/06/01 09:41:03;;;;;;;9.10;4.93;;;24.80;99.90;26.80;94354.00;;;;7370994;19;20140;-77
2023/06/01 09:43:37;;;;;;;6.78;4.22;;;25.00;99.90;26.80;94363.00;;;;7371241;19;20208;-76
2023/06/01 09:46:13;;;;;;;10.90;5.75;;;24.90;99.90;26.50;94340.00;;;;7370823;19;20145;-75
2023/06/01 09:48:49;;;;;;;7.82;4.47;;;25.20;99.90;26.20;94348.00;;;;7369650;19;20172;-77
2023/06/01 09:51:29;;;;;;;9.45;4.68;;;25.30;99.90;27.40;94332.00;;;;7374836;19;20145;-76
2023/06/01 09:53:57;;;;;;;6.25;4.68;;;25.50;99.90;27.20;94340.00;;;;7378042;19;20152;-76
2023/06/01 09:56:44;;;;;;;12.80;4.72;;;25.70;99.90;27.80;94329.00;;;;7375982;19;20161;-76
2023/06/01 09:59:28;;;;;;;6.97;4.40;;;25.60;99.90;28.40;94326.00;;;;7375638;19;20145;-77
2023/06/01 10:02:07;;;;;;;8.48;4.50;;;25.90;99.90;28.70;94342.00;;;;7376876;19;20195;-78
2023/06/01 10:04:40;;;;;;;20.42;5.47;;;26.20;99.90;28.10;94283.00;;;;7375129;19;20129;-76
2023/06/01 10:07:30;;;;;;;9.25;4.93;;;26.50;99.90;28.50;94331.00;;;;7376686;19;20125;-76
2023/06/01 10:10:06;;;;;;;6.28;4.88;;;26.80;99.90;28.50;94340.00;;;;7377211;19;20145;-76
2023/06/01 10:12:40;;;;;;;7.10;4.70;;;27.00;99.90;28.80;94323.00;;;;7380438;19;20182;-77
2023/06/01 10:15:11;;;;;;;12.75;5.45;;;27.30;99.90;28.90;94320.00;;;;7379548;19;20132;-77
2023/06/01 10:17:58;;;;;;;9.50;4.97;;;27.30;99.90;28.40;94327.00;;;;7381015;19;20144;-76
2023/06/01 10:20:39;;;;;;;8.95;4.88;;;27.40;99.90;28.60;94330.00;;;;7377483;19;20151;-76
2023/06/01 10:23:14;;;;;;;11.15;4.95;;;27.50;99.90;28.60;94325.00;;;;7378967;19;20128;-78
2023/06/01 10:25:51;;;;;;;6.20;4.30;;;27.30;99.90;28.50;94319.00;;;;7380277;19;20158;-77
2023/06/01 10:28:29;;;;;;;6.22;4.50;;;27.40;99.90;27.80;94318.00;;;;7380025;19;20168;-78
2023/06/01 10:31:34;;;;;;;5.63;4.57;;;27.10;1.00;27.80;94330.00;;;;7378263;19;20808;-77
2023/06/01 10:34:12;;;;;;;6.55;4.82;;;27.10;99.90;28.00;94313.00;;;;7378872;19;20543;-79
2023/06/01 10:36:52;;;;;;;5.90;4.07;;;26.80;99.90;28.00;94322.00;;;;7377229;19;20198;-76
2023/06/01 10:39:32;;;;;;;6.10;4.50;;;26.90;99.90;28.50;94297.00;;;;7377480;19;21683;-75
2023/06/01 10:42:15;;;;;;;5.40;4.25;;;27.00;99.90;28.60;94324.00;;;;7375357;19;20148;-77
2023/06/01 10:44:42;;;;;;;5.75;4.45;;;27.40;99.90;28.60;94317.00;;;;7378132;19;20202;-78
2023/06/01 10:47:17;;;;;;;6.53;4.00;;;27.60;99.90;28.90;94326.00;;;;7378706;19;20239;-79
2023/06/01 10:50:07;;;;;;;5.53;4.65;;;27.70;99.90;28.10;94301.00;;;;7378673;19;20147;-77
2023/06/01 10:52:50;;;;;;;11.45;4.82;;;28.20;1.00;29.00;94294.00;;;;7376874;19;20528;-75
2023/06/01 10:55:20;;;;;;;8.88;4.70;;;28.30;99.90;29.20;94317.00;;;;7377005;19;20139;-77
2023/06/01 10:58:26;;;;;;;5.60;4.47;;;28.60;1.00;29.50;94300.00;;;;7377781;19;20151;-78
2023/06/01 11:01:01;;;;;;;8.27;4.68;;;;;29.80;94311.00;;;;7376430;19;20186;-78
2023/06/01 11:03:49;;;;;;;7.68;4.47;;;28.90;1.00;29.90;94310.00;;;;7376920;19;20155;-77
2023/06/01 11:06:37;;;;;;;8.95;4.75;;;29.30;99.90;29.80;94296.00;;;;7377339;19;20443;-77
2023/06/01 11:09:19;;;;;;;5.43;4.13;;;29.20;1.00;29.20;94310.00;;;;7375695;19;20219;-74
2023/06/01 11:11:52;;;;;;;8.13;4.97;;;29.30;1.00;28.60;94308.00;;;;7379245;19;20148;-77
2023/06/01 11:14:30;;;;;;;8.10;4.55;;;29.10;99.90;29.80;94292.00;;;;7379344;19;20136;-77
2023/06/01 11:17:30;;;;;;;6.30;4.88;;;29.00;99.90;30.60;94312.00;;;;7374966;19;20144;-76
2023/06/01 11:20:10;;;;;;;6.65;4.40;;;29.20;99.90;29.70;94307.00;;;;7376290;19;20151;-76
2023/06/01 11:22:38;;;;;;;8.63;4.30;;;28.60;99.90;29.10;94306.00;;;;7370378;19;20152;-75
2023/06/01 11:25:17;;;;;;;12.40;4.50;;;28.50;99.90;29.20;94308.00;;;;7375746;19;20211;-77
2023/06/01 11:27:45;;;;;;;5.63;4.30;;;29.00;99.90;29.40;94292.00;;;;7376006;19;20136;-77
2023/06/01 11:30:21;;;;;;;7.80;4.70;;;29.00;99.90;29.60;94261.00;;;;7376743;19;20150;-78
2023/06/01 11:32:53;;;;;;;5.38;4.68;;;29.30;1.00;29.60;94303.00;;;;7375203;19;20182;-77
2023/06/01 11:35:29;;;;;;;5.72;4.13;;;29.30;1.00;29.60;94291.00;;;;7380500;19;20202;-78